BIKF/KEF METAR and TAF weather

Enter ICAO airport designator
Station Type Date Time Source
BIKF METAR 2018/10/19 15:30 UTC NOAA

BIKF 191530Z 22022KT 9999 VCSH FEW020 BKN038 05/02 Q0997


Station Type Date Time Source
BIKF Decoded METAR 2018/10/19 15:30 UTC NOAA

Keflavikurflugvollur, Iceland (BIKF) 63-58N 022-36W 54M
Oct 19, 2018 - 11:30 AM EDT / 2018.10.19 1530 UTC
Wind: from the SW (220 degrees) at 25 MPH (22 KT):0
Visibility: greater than 7 mile(s):0
Sky conditions: mostly cloudy
Weather: showers in the vicinity
Temperature: 41 F (5 C)
Dew Point: 35 F (2 C)
Relative Humidity: 80%
Pressure (altimeter): 29.44 in. Hg (0997 hPa)
ob: BIKF 191530Z 22022KT 9999 VCSH FEW020 BKN038 05/02 Q0997
cycle: 15

Station Type Date Time Source
BIKF TAF 2018/10/19 15:40 UTC NOAA

TAF BIKF 191338Z 1915/2015 23025G35KT 9999 -SHRA FEW017CB SCT035 TX09/2009Z TN05/1921Z
BECMG 1915/1917 21015KT
BECMG 1921/1923 14022G35KT 5000 RADZ BKN012 OVC020 PROB40 2003/2008 1200 +RADZ OVC006
BECMG 2006/2008 22022G35KT
BECMG 2008/2011 22035G50KT 9000 SHRA FEW015 BKN025


Example: see airport list